createdAt,value
2019-03-19T00:00:56.612Z,5.90
2019-03-19T00:05:09.208Z,10.47
2019-03-19T00:09:21.993Z,7.40
2019-03-19T00:13:34.547Z,6.40
2019-03-19T00:17:48.091Z,6.70
2019-03-19T00:22:00.386Z,8.23
2019-03-19T00:26:12.779Z,5.90
2019-03-19T00:30:25.511Z,5.30
2019-03-19T00:34:37.919Z,4.73
2019-03-19T00:38:50.751Z,6.00
2019-03-19T00:43:03.306Z,6.40
2019-03-19T00:47:16.942Z,5.13
2019-03-19T00:51:29.364Z,4.63
2019-03-19T00:55:41.867Z,5.07
2019-03-19T00:59:54.520Z,4.43
2019-03-19T01:04:07.018Z,4.63
2019-03-19T01:08:19.331Z,4.90
2019-03-19T01:12:31.628Z,4.47
2019-03-19T01:16:44.326Z,6.03
2019-03-19T01:20:56.888Z,5.33
2019-03-19T01:25:09.764Z,6.33
2019-03-19T01:29:22.368Z,5.40
2019-03-19T01:33:34.907Z,5.97
2019-03-19T01:37:47.907Z,4.43
2019-03-19T01:42:00.393Z,4.37
2019-03-19T01:46:12.703Z,8.30
2019-03-19T01:50:25.395Z,4.60
2019-03-19T01:54:37.855Z,5.07
2019-03-19T01:58:50.263Z,4.40
2019-03-19T02:03:03.114Z,4.10
2019-03-19T02:07:15.611Z,6.40
2019-03-19T02:11:27.904Z,6.20
2019-03-19T02:15:40.811Z,5.63
2019-03-19T02:19:53.158Z,5.30
2019-03-19T02:24:05.471Z,4.27
2019-03-19T02:28:18.918Z,5.33
2019-03-19T02:32:31.457Z,6.07
2019-03-19T02:36:44.120Z,5.77
2019-03-19T02:40:56.566Z,5.10
2019-03-19T02:45:09.434Z,4.60
2019-03-19T02:49:22.119Z,4.50
2019-03-19T02:53:34.424Z,5.27
2019-03-19T02:57:47.120Z,4.87
2019-03-19T03:01:59.672Z,4.60
2019-03-19T03:06:13.273Z,4.53
2019-03-19T03:10:26.100Z,4.77
2019-03-19T03:14:38.772Z,4.33
2019-03-19T03:18:52.273Z,5.30
2019-03-19T03:23:04.835Z,5.97
2019-03-19T03:27:17.699Z,5.40
2019-03-19T03:31:30.329Z,6.47
2019-03-19T03:35:43.768Z,6.77
2019-03-19T03:39:56.015Z,6.60
2019-03-19T03:44:08.808Z,6.17
2019-03-19T03:48:22.445Z,6.43
2019-03-19T03:52:34.916Z,5.50
2019-03-19T03:57:00.903Z,4.20
2019-03-19T04:01:01.788Z,5.60
2019-03-19T04:05:14.494Z,6.20
2019-03-19T04:09:27.296Z,5.10
2019-03-19T04:13:39.748Z,5.27
2019-03-19T04:17:52.060Z,5.27
2019-03-19T04:22:04.388Z,5.40
2019-03-19T04:26:17.156Z,4.30
2019-03-19T04:30:29.516Z,3.93
2019-03-19T04:34:41.996Z,4.63
2019-03-19T04:38:54.974Z,3.87
2019-03-19T04:43:07.378Z,4.00
2019-03-19T04:47:20.920Z,3.60
2019-03-19T04:51:33.324Z,4.60
2019-03-19T04:55:46.777Z,4.33
2019-03-19T04:59:59.197Z,4.30
2019-03-19T05:04:11.967Z,4.03
2019-03-19T05:08:24.657Z,4.03
2019-03-19T05:12:36.933Z,4.60
2019-03-19T05:16:49.629Z,4.07
2019-03-19T05:21:02.090Z,3.37
2019-03-19T05:25:14.395Z,3.40
2019-03-19T05:29:27.830Z,3.87
2019-03-19T05:33:40.150Z,3.17
2019-03-19T05:37:53.099Z,4.47
2019-03-19T05:42:05.668Z,5.07
2019-03-19T05:46:18.000Z,4.37
2019-03-19T05:50:30.596Z,3.10
2019-03-19T05:54:43.050Z,2.67
2019-03-19T05:58:56.489Z,3.07
2019-03-19T06:03:08.921Z,3.57
2019-03-19T06:07:22.340Z,4.30
2019-03-19T06:11:34.720Z,4.77
2019-03-19T06:15:46.956Z,3.70
2019-03-19T06:19:59.651Z,3.53
2019-03-19T06:24:12.116Z,3.73
2019-03-19T06:28:25.654Z,2.90
2019-03-19T06:32:38.167Z,3.20
2019-03-19T06:36:50.531Z,3.80
2019-03-19T06:41:03.442Z,4.70
2019-03-19T06:45:16.431Z,4.53
2019-03-19T06:49:29.121Z,5.17
2019-03-19T06:53:41.468Z,4.60
2019-03-19T06:57:53.672Z,4.30
2019-03-19T07:02:06.472Z,5.07
2019-03-19T07:06:19.032Z,4.77
2019-03-19T07:10:32.583Z,4.87
2019-03-19T07:14:45.053Z,4.30
2019-03-19T07:18:57.877Z,5.10
2019-03-19T07:23:10.439Z,5.40
2019-03-19T07:27:22.846Z,5.90
2019-03-19T07:31:35.148Z,5.90
2019-03-19T07:35:47.420Z,5.23
2019-03-19T07:40:00.366Z,5.47
2019-03-19T07:44:12.774Z,5.40
2019-03-19T07:48:26.158Z,6.23
2019-03-19T07:52:38.467Z,4.93
2019-03-19T07:56:50.672Z,5.17
2019-03-19T08:01:02.977Z,6.13
2019-03-19T08:05:15.673Z,5.50
2019-03-19T08:09:28.349Z,4.90
2019-03-19T08:13:40.909Z,6.37
2019-03-19T08:17:53.541Z,6.33
2019-03-19T08:22:08.782Z,6.50
2019-03-19T08:26:23.904Z,5.47
2019-03-19T08:30:39.262Z,6.30
2019-03-19T08:34:52.100Z,6.10
2019-03-19T08:39:05.559Z,5.37
2019-03-19T08:43:20.259Z,5.30
2019-03-19T08:47:33.408Z,4.87
2019-03-19T08:51:45.812Z,4.47
2019-03-19T08:55:58.103Z,5.17
2019-03-19T09:00:13.880Z,4.10
2019-03-19T09:04:26.350Z,3.60
2019-03-19T09:08:38.738Z,3.80
2019-03-19T09:12:51.056Z,2.30
2019-03-19T09:17:04.476Z,1.90
2019-03-19T09:21:18.195Z,1.80
2019-03-19T09:25:30.829Z,2.30
2019-03-19T09:29:44.367Z,1.73
2019-03-19T09:33:57.010Z,2.40
2019-03-19T09:38:09.706Z,3.10
2019-03-19T09:42:22.166Z,3.27
2019-03-19T09:46:34.490Z,2.10
2019-03-19T09:50:46.968Z,3.27
2019-03-19T09:54:59.576Z,3.33
2019-03-19T09:59:11.936Z,2.80
2019-03-19T10:03:24.357Z,2.30
2019-03-19T10:07:37.130Z,2.50
2019-03-19T10:11:49.584Z,2.23
2019-03-19T10:16:01.903Z,2.60
2019-03-19T10:20:17.650Z,2.27
2019-03-19T10:24:29.316Z,1.97
2019-03-19T10:28:42.075Z,2.00
2019-03-19T10:32:54.528Z,1.80
2019-03-19T10:37:08.141Z,2.20
2019-03-19T10:41:20.586Z,1.70
2019-03-19T10:45:33.278Z,1.97
2019-03-19T10:49:45.736Z,1.93
2019-03-19T10:53:58.204Z,1.93
2019-03-19T10:58:11.504Z,1.90
2019-03-19T11:02:23.890Z,1.50
2019-03-19T11:06:36.580Z,1.80
2019-03-19T11:10:49.037Z,2.13
2019-03-19T11:15:01.351Z,1.73
2019-03-19T11:19:14.235Z,1.90
2019-03-19T11:23:26.775Z,2.50
2019-03-19T11:27:39.603Z,1.80
2019-03-19T11:31:52.095Z,1.53
2019-03-19T11:36:04.518Z,1.90
2019-03-19T11:40:17.715Z,1.90
2019-03-19T11:44:30.099Z,1.87
2019-03-19T11:48:43.544Z,1.90
2019-03-19T11:52:56.051Z,1.30
2019-03-19T11:57:08.915Z,1.80
2019-03-19T12:01:21.296Z,1.60
2019-03-19T12:05:33.620Z,1.73
2019-03-19T12:09:46.612Z,1.20
2019-03-19T12:13:59.160Z,1.10
2019-03-19T12:18:12.703Z,0.83
2019-03-19T12:22:25.011Z,1.20
2019-03-19T12:26:38.614Z,1.50
2019-03-19T12:30:51.446Z,1.50
2019-03-19T12:35:03.912Z,1.30
2019-03-19T12:39:16.859Z,1.07
2019-03-19T12:43:29.549Z,1.40
2019-03-19T12:47:41.973Z,1.07
2019-03-19T12:51:54.865Z,1.07
2019-03-19T12:56:07.315Z,0.80
2019-03-19T13:00:20.880Z,1.40
2019-03-19T13:04:33.268Z,1.00
2019-03-19T13:08:46.132Z,0.90
2019-03-19T13:12:58.715Z,1.10
2019-03-19T13:17:11.034Z,1.13
2019-03-19T13:21:23.437Z,0.90
2019-03-19T13:25:36.128Z,1.00
2019-03-19T13:29:48.641Z,1.23
2019-03-19T13:34:00.977Z,1.00
2019-03-19T13:38:14.295Z,0.90
2019-03-19T13:42:26.631Z,0.77
2019-03-19T13:46:39.323Z,1.40
2019-03-19T13:50:51.798Z,0.67
2019-03-19T13:55:04.107Z,0.87
2019-03-19T13:59:16.995Z,0.77
2019-03-19T14:03:29.508Z,0.63
2019-03-19T14:07:41.838Z,0.83
2019-03-19T14:11:54.430Z,0.67
2019-03-19T14:16:06.991Z,0.93
2019-03-19T14:20:19.292Z,0.83
2019-03-19T14:24:31.500Z,0.80
2019-03-19T14:28:44.205Z,0.83
2019-03-19T14:32:56.839Z,0.80
2019-03-19T14:37:09.282Z,1.27
2019-03-19T14:41:21.955Z,1.23
2019-03-19T14:45:34.315Z,1.00
2019-03-19T14:49:49.758Z,1.23
2019-03-19T14:54:00.952Z,1.43
2019-03-19T14:58:13.415Z,2.00
2019-03-19T15:02:25.715Z,1.20
2019-03-19T15:06:39.229Z,1.53
2019-03-19T15:10:51.559Z,1.77
2019-03-19T15:15:03.793Z,1.50
2019-03-19T15:19:16.556Z,1.83
2019-03-19T15:23:29.019Z,1.63
2019-03-19T15:27:42.565Z,1.77
2019-03-19T15:31:54.984Z,1.80
2019-03-19T15:36:08.109Z,1.10
2019-03-19T15:40:20.696Z,1.53
2019-03-19T15:44:33.620Z,1.87
2019-03-19T15:48:45.969Z,2.20
2019-03-19T15:52:58.380Z,1.53
2019-03-19T15:57:11.170Z,2.10
2019-03-19T16:01:23.636Z,1.47
2019-03-19T16:05:36.033Z,1.77
2019-03-19T16:09:49.448Z,1.37
2019-03-19T16:14:01.783Z,1.50
2019-03-19T16:18:15.032Z,1.13
2019-03-19T16:22:27.328Z,1.43
2019-03-19T16:26:40.035Z,1.40
2019-03-19T16:30:52.589Z,3.20
2019-03-19T16:35:05.032Z,5.83
2019-03-19T16:39:18.035Z,7.77
2019-03-19T16:43:30.444Z,4.20
2019-03-19T16:47:43.898Z,3.37
2019-03-19T16:51:56.203Z,2.40
2019-03-19T16:56:08.592Z,1.40
2019-03-19T17:00:21.189Z,0.93
2019-03-19T17:04:33.751Z,1.83
2019-03-19T17:08:47.191Z,1.40
2019-03-19T17:12:59.674Z,1.33
2019-03-19T17:17:13.047Z,0.90
2019-03-19T17:21:25.446Z,1.23
2019-03-19T17:25:38.515Z,1.63
2019-03-19T17:29:51.106Z,1.27
2019-03-19T17:34:03.904Z,1.50
2019-03-19T17:38:16.455Z,1.20
2019-03-19T17:42:28.836Z,1.00
2019-03-19T17:46:41.547Z,1.13
2019-03-19T17:50:57.518Z,1.23
2019-03-19T17:55:11.075Z,1.10
2019-03-19T17:59:23.814Z,1.67
2019-03-19T18:03:36.271Z,1.10
2019-03-19T18:07:48.562Z,1.23
2019-03-19T18:12:01.271Z,1.07
2019-03-19T18:16:13.787Z,1.30
2019-03-19T18:20:27.372Z,1.13
2019-03-19T18:24:39.775Z,1.50
2019-03-19T18:28:52.567Z,0.83
2019-03-19T18:33:05.018Z,1.67
2019-03-19T18:37:17.330Z,1.00
2019-03-19T18:41:29.703Z,1.20
2019-03-19T18:45:42.612Z,1.23
2019-03-19T18:49:54.995Z,1.70
2019-03-19T18:54:07.398Z,1.67
2019-03-19T18:58:20.745Z,1.80
2019-03-19T19:02:33.243Z,2.13
2019-03-19T19:06:45.835Z,2.30
2019-03-19T19:10:58.398Z,2.60
2019-03-19T19:15:12.181Z,2.53
2019-03-19T19:19:24.987Z,2.73
2019-03-19T19:23:37.591Z,2.30
2019-03-19T19:27:49.904Z,4.60
2019-03-19T19:32:02.307Z,3.50
2019-03-19T19:36:14.518Z,5.17
2019-03-19T19:40:27.338Z,5.30
2019-03-19T19:44:39.664Z,4.37
2019-03-19T19:48:53.455Z,3.27
2019-03-19T19:53:06.402Z,3.47
2019-03-19T19:57:18.867Z,3.13
2019-03-19T20:01:31.262Z,3.23
2019-03-19T20:05:43.960Z,3.50
2019-03-19T20:09:56.520Z,4.10
2019-03-19T20:14:08.927Z,3.30
2019-03-19T20:18:21.714Z,3.17
2019-03-19T20:22:35.427Z,3.10
2019-03-19T20:26:47.816Z,3.50
2019-03-19T20:31:01.515Z,4.03
2019-03-19T20:35:13.955Z,3.67
2019-03-19T20:39:26.783Z,3.73
2019-03-19T20:43:39.210Z,2.93
2019-03-19T20:47:51.617Z,2.97
2019-03-19T20:52:04.404Z,3.33
2019-03-19T20:56:16.879Z,3.13
2019-03-19T21:00:29.171Z,4.70
2019-03-19T21:04:41.382Z,5.83
2019-03-19T21:08:54.088Z,11.03
2019-03-19T21:13:06.540Z,9.47
2019-03-19T21:17:18.896Z,17.40
2019-03-19T21:21:31.738Z,19.37
2019-03-19T21:25:44.262Z,18.10
2019-03-19T21:29:57.185Z,17.77
2019-03-19T21:34:09.740Z,19.07
2019-03-19T21:38:22.050Z,17.80
2019-03-19T21:42:35.017Z,18.70
2019-03-19T21:46:47.712Z,17.47
2019-03-19T21:51:00.106Z,16.63
2019-03-19T21:55:14.168Z,16.57
2019-03-19T21:59:26.896Z,16.23
2019-03-19T22:03:39.206Z,14.37
2019-03-19T22:07:51.999Z,14.07
2019-03-19T22:12:04.563Z,13.57
2019-03-19T22:16:16.866Z,13.87
2019-03-19T22:20:30.304Z,14.43
2019-03-19T22:24:42.722Z,13.73
2019-03-19T22:28:56.236Z,13.13
2019-03-19T22:33:08.573Z,13.03
2019-03-19T22:37:21.364Z,15.30
2019-03-19T22:41:35.311Z,17.60
2019-03-19T22:45:47.670Z,17.73
2019-03-19T22:50:00.668Z,18.50
2019-03-19T22:54:13.015Z,14.73
2019-03-19T22:58:25.382Z,15.43
2019-03-19T23:02:37.626Z,14.40
2019-03-19T23:06:50.323Z,13.43
2019-03-19T23:11:02.877Z,12.77
2019-03-19T23:15:15.278Z,16.63
2019-03-19T23:19:27.980Z,14.20
2019-03-19T23:23:40.442Z,12.07
2019-03-19T23:27:54.161Z,14.33
2019-03-19T23:32:06.441Z,14.10
2019-03-19T23:36:19.283Z,10.73
2019-03-19T23:40:31.731Z,11.93
2019-03-19T23:44:44.111Z,17.30
2019-03-19T23:48:57.417Z,15.90
2019-03-19T23:53:09.858Z,11.13
2019-03-19T23:57:22.679Z,9.63
